createdAt,value
2019-05-29T00:00:54.461Z,12.58
2019-05-29T00:01:54.871Z,12.70
2019-05-29T00:02:55.306Z,12.70
2019-05-29T00:03:55.730Z,12.68
2019-05-29T00:04:56.163Z,12.62
2019-05-29T00:05:56.586Z,12.58
2019-05-29T00:06:57.020Z,12.64
2019-05-29T00:07:57.442Z,12.58
2019-05-29T00:08:57.881Z,12.61
2019-05-29T00:09:58.304Z,12.61
2019-05-29T00:10:58.736Z,12.50
2019-05-29T00:11:59.174Z,12.43
2019-05-29T00:12:59.587Z,12.53
2019-05-29T00:14:00.023Z,12.50
2019-05-29T00:15:00.453Z,12.46
2019-05-29T00:16:00.881Z,12.55
2019-05-29T00:17:01.309Z,12.47
2019-05-29T00:18:01.750Z,12.43
2019-05-29T00:19:02.172Z,12.46
2019-05-29T00:20:02.636Z,12.40
2019-05-29T00:21:03.050Z,12.43
2019-05-29T00:22:03.460Z,12.47
2019-05-29T00:23:03.889Z,12.35
2019-05-29T00:24:04.317Z,12.32
2019-05-29T00:25:04.754Z,12.42
2019-05-29T00:26:06.245Z,12.43
2019-05-29T00:27:05.600Z,12.39
2019-05-29T00:28:06.471Z,12.36
2019-05-29T00:29:07.473Z,12.32
2019-05-29T00:30:07.015Z,12.36
2019-05-29T00:31:07.745Z,12.40
2019-05-29T00:32:08.827Z,12.37
2019-05-29T00:33:08.181Z,12.35
2019-05-29T00:35:42.682Z,12.42
2019-05-29T00:36:43.108Z,12.37
2019-05-29T00:38:37.663Z,12.45
2019-05-29T00:39:38.085Z,12.39
2019-05-29T00:41:32.629Z,12.37
2019-05-29T00:42:33.071Z,12.29
2019-05-29T00:46:01.738Z,12.32
2019-05-29T00:47:02.155Z,12.31
2019-05-29T00:48:56.713Z,12.27
2019-05-29T00:49:57.128Z,12.24
2019-05-29T00:51:52.669Z,12.35
2019-05-29T00:52:53.101Z,12.31
2019-05-29T00:54:47.662Z,12.29
2019-05-29T00:55:48.088Z,12.35
2019-05-29T00:57:42.640Z,12.39
2019-05-29T00:58:43.073Z,12.40
2019-05-29T01:00:37.669Z,12.39
2019-05-29T01:01:38.099Z,12.32
2019-05-29T01:03:32.661Z,12.32
2019-05-29T01:04:33.078Z,12.45
2019-05-29T01:06:27.631Z,12.36
2019-05-29T01:07:28.071Z,12.37
2019-05-29T01:09:22.612Z,12.36
2019-05-29T01:10:23.031Z,12.35
2019-05-29T01:12:17.585Z,12.37
2019-05-29T01:13:19.144Z,12.35
2019-05-29T01:15:13.555Z,12.37
2019-05-29T01:16:13.977Z,12.29
2019-05-29T01:18:08.535Z,12.32
2019-05-29T01:19:08.963Z,12.24
2019-05-29T01:21:04.494Z,12.27
2019-05-29T01:22:04.933Z,12.25
2019-05-29T01:23:59.491Z,12.29
2019-05-29T01:24:59.912Z,12.22
2019-05-29T01:26:54.503Z,12.29
2019-05-29T01:27:54.899Z,12.13
2019-05-29T01:29:49.459Z,12.15
2019-05-29T01:30:51.534Z,11.97
2019-05-29T01:32:45.420Z,11.99
2019-05-29T01:33:45.850Z,11.95
2019-05-29T01:35:40.396Z,12.07
2019-05-29T01:36:40.820Z,12.02
2019-05-29T01:38:35.393Z,12.00
2019-05-29T01:39:35.814Z,12.02
2019-05-29T01:41:31.365Z,12.06
2019-05-29T01:42:31.782Z,12.06
2019-05-29T01:44:27.841Z,12.00
2019-05-29T01:45:27.775Z,11.99
2019-05-29T01:47:22.299Z,12.07
2019-05-29T01:48:23.639Z,12.00
2019-05-29T01:50:17.677Z,11.95
2019-05-29T01:51:17.712Z,11.87
2019-05-29T01:53:12.266Z,11.86
2019-05-29T01:54:12.684Z,11.83
2019-05-29T01:56:07.237Z,11.86
2019-05-29T01:57:07.660Z,11.90
2019-05-29T01:59:02.223Z,11.95
2019-05-29T02:00:02.657Z,11.88
2019-05-29T02:01:03.073Z,11.84
2019-05-29T02:02:03.508Z,11.83
2019-05-29T02:03:03.931Z,11.94
2019-05-29T02:04:04.357Z,11.86
2019-05-29T02:05:04.787Z,11.81
2019-05-29T02:06:05.222Z,11.88
2019-05-29T02:07:05.642Z,11.83
2019-05-29T02:08:06.077Z,11.86
2019-05-29T02:09:06.501Z,11.78
2019-05-29T02:10:06.927Z,11.80
2019-05-29T02:11:07.358Z,11.63
2019-05-29T02:12:07.785Z,11.54
2019-05-29T02:13:08.213Z,11.65
2019-05-29T02:14:08.647Z,11.60
2019-05-29T02:15:22.988Z,11.60
2019-05-29T02:16:09.502Z,11.57
2019-05-29T02:17:09.924Z,11.62
2019-05-29T02:18:10.357Z,11.57
2019-05-29T02:19:10.790Z,11.59
2019-05-29T02:20:11.212Z,11.70
2019-05-29T02:21:11.638Z,11.57
2019-05-29T02:22:12.084Z,11.55
2019-05-29T02:23:12.535Z,11.57
2019-05-29T02:24:12.933Z,11.51
2019-05-29T02:25:15.920Z,11.57
2019-05-29T02:26:13.781Z,11.50
2019-05-29T02:27:14.210Z,11.68
2019-05-29T02:28:14.639Z,11.70
2019-05-29T02:29:15.068Z,11.62
2019-05-29T02:30:17.830Z,11.75
2019-05-29T02:31:17.638Z,11.59
2019-05-29T02:32:17.676Z,11.62
2019-05-29T02:33:17.577Z,11.69
2019-05-29T02:34:17.552Z,11.73
2019-05-29T02:35:17.961Z,11.72
2019-05-29T02:36:18.060Z,11.73
2019-05-29T02:37:19.947Z,11.65
2019-05-29T02:38:20.311Z,11.63
2019-05-29T02:39:21.049Z,11.66
2019-05-29T02:40:21.288Z,11.70
2019-05-29T02:41:21.668Z,11.63
2019-05-29T02:42:20.978Z,11.45
2019-05-29T02:43:21.497Z,11.51
2019-05-29T02:44:23.332Z,11.50
2019-05-29T02:45:23.833Z,11.44
2019-05-29T02:46:23.983Z,11.43
2019-05-29T02:47:23.560Z,11.52
2019-05-29T02:48:24.950Z,11.48
2019-05-29T02:49:23.950Z,11.51
2019-05-29T02:50:24.563Z,11.62
2019-05-29T02:51:26.365Z,11.62
2019-05-29T02:52:26.338Z,11.55
2019-05-29T02:53:26.192Z,11.54
2019-05-29T02:54:27.200Z,11.59
2019-05-29T02:55:26.895Z,11.50
2019-05-29T02:56:27.049Z,11.47
2019-05-29T02:57:27.140Z,11.47
2019-05-29T02:58:28.215Z,11.43
2019-05-29T02:59:29.641Z,11.45
2019-05-29T03:00:29.295Z,11.47
2019-05-29T03:01:29.746Z,11.41
2019-05-29T03:02:30.138Z,11.50
2019-05-29T03:03:33.167Z,11.41
2019-05-29T03:04:30.345Z,11.40
2019-05-29T03:05:31.986Z,11.44
2019-05-29T03:06:32.337Z,11.41
2019-05-29T03:07:32.781Z,11.48
2019-05-29T03:08:33.574Z,11.50
2019-05-29T03:09:32.663Z,11.45
2019-05-29T03:10:33.167Z,11.43
2019-05-29T03:11:33.492Z,11.50
2019-05-29T03:12:33.807Z,11.45
2019-05-29T03:13:33.910Z,11.50
2019-05-29T03:14:34.898Z,11.37
2019-05-29T03:15:34.765Z,11.43
2019-05-29T03:16:35.189Z,11.45
2019-05-29T03:17:35.617Z,11.47
2019-05-29T03:18:36.049Z,11.52
2019-05-29T03:19:36.473Z,11.54
2019-05-29T03:20:36.899Z,11.50
2019-05-29T03:21:37.326Z,11.57
2019-05-29T03:22:37.758Z,11.45
2019-05-29T03:23:38.189Z,11.47
2019-05-29T03:24:38.698Z,11.47
2019-05-29T03:25:46.217Z,11.54
2019-05-29T03:27:33.948Z,11.44
2019-05-29T03:28:34.972Z,11.48
2019-05-29T03:30:31.810Z,11.26
2019-05-29T03:31:36.843Z,11.43
2019-05-29T03:33:27.154Z,11.30
2019-05-29T03:34:27.683Z,11.43
2019-05-29T03:36:19.519Z,11.35
2019-05-29T03:37:19.938Z,11.33
2019-05-29T03:39:14.509Z,11.50
2019-05-29T03:40:14.940Z,11.37
2019-05-29T03:42:09.523Z,11.33
2019-05-29T03:43:09.932Z,11.52
2019-05-29T03:45:05.475Z,11.55
2019-05-29T03:46:05.933Z,11.48
2019-05-29T03:48:00.450Z,11.44
2019-05-29T03:49:00.877Z,11.30
2019-05-29T03:50:55.439Z,11.41
2019-05-29T03:51:55.851Z,11.40
2019-05-29T03:53:50.411Z,11.33
2019-05-29T03:54:50.845Z,11.37
2019-05-29T03:56:45.439Z,11.35
2019-05-29T03:57:45.824Z,11.50
2019-05-29T03:59:40.387Z,11.54
2019-05-29T04:00:46.193Z,11.66
2019-05-29T04:02:36.159Z,11.60
2019-05-29T04:03:37.701Z,11.54
2019-05-29T04:05:33.246Z,11.45
2019-05-29T04:06:33.244Z,11.59
2019-05-29T04:08:27.412Z,11.70
2019-05-29T04:09:27.176Z,11.54
2019-05-29T04:11:21.318Z,11.59
2019-05-29T04:12:21.741Z,11.69
2019-05-29T04:14:16.296Z,11.51
2019-05-29T04:15:16.723Z,11.62
2019-05-29T04:17:11.318Z,11.77
2019-05-29T04:18:11.684Z,11.84
2019-05-29T04:20:06.248Z,11.83
2019-05-29T04:21:06.664Z,12.03
2019-05-29T04:23:01.223Z,11.75
2019-05-29T04:24:01.649Z,11.87
2019-05-29T04:25:56.223Z,11.81
2019-05-29T04:26:56.641Z,11.84
2019-05-29T04:28:52.161Z,11.70
2019-05-29T04:29:52.605Z,11.77
2019-05-29T04:31:47.155Z,11.95
2019-05-29T04:32:47.577Z,12.07
2019-05-29T04:34:42.125Z,11.94
2019-05-29T04:35:42.555Z,11.87
2019-05-29T04:37:39.437Z,11.86
2019-05-29T04:38:38.444Z,11.86
2019-05-29T04:40:32.677Z,11.80
2019-05-29T04:41:32.831Z,11.90
2019-05-29T04:43:28.615Z,11.73
2019-05-29T04:44:28.802Z,11.78
2019-05-29T04:46:22.060Z,11.99
2019-05-29T04:47:22.491Z,12.02
2019-05-29T04:49:20.132Z,12.03
2019-05-29T04:50:17.474Z,12.09
2019-05-29T04:52:13.006Z,12.07
2019-05-29T04:53:13.434Z,12.15
2019-05-29T04:55:07.984Z,12.03
2019-05-29T04:56:08.411Z,12.04
2019-05-29T04:58:03.028Z,12.27
2019-05-29T04:59:03.397Z,12.20
2019-05-29T05:00:59.693Z,12.39
2019-05-29T05:01:59.357Z,12.24
2019-05-29T05:03:53.911Z,12.22
2019-05-29T05:04:54.342Z,12.21
2019-05-29T05:06:49.899Z,11.86
2019-05-29T05:07:50.315Z,12.22
2019-05-29T05:09:44.871Z,12.29
2019-05-29T05:10:45.304Z,12.02
2019-05-29T05:12:40.183Z,12.00
2019-05-29T05:13:40.300Z,12.13
2019-05-29T05:15:36.016Z,12.00
2019-05-29T05:16:36.261Z,12.12
2019-05-29T05:18:31.770Z,12.10
2019-05-29T05:19:31.814Z,12.17
2019-05-29T05:21:25.813Z,12.09
2019-05-29T05:22:26.235Z,12.36
2019-05-29T05:24:20.803Z,12.32
2019-05-29T05:25:21.224Z,12.43
2019-05-29T05:27:16.775Z,12.78
2019-05-29T05:28:17.205Z,13.01
2019-05-29T05:30:11.751Z,13.04
2019-05-29T05:31:12.180Z,13.28
2019-05-29T05:33:06.762Z,13.25
2019-05-29T05:34:07.186Z,13.31
2019-05-29T05:36:01.752Z,13.11
2019-05-29T05:37:02.179Z,12.85
2019-05-29T05:38:57.726Z,13.19
2019-05-29T05:39:58.157Z,12.79
2019-05-29T05:41:53.708Z,12.61
2019-05-29T05:42:54.124Z,12.72
2019-05-29T05:44:48.688Z,12.39
2019-05-29T05:45:49.119Z,12.78
2019-05-29T05:47:56.434Z,12.55
2019-05-29T05:48:45.089Z,12.95
2019-05-29T05:50:41.496Z,13.16
2019-05-29T05:51:44.186Z,12.97
2019-05-29T05:53:35.740Z,13.18
2019-05-29T05:54:36.093Z,13.27
2019-05-29T05:56:31.429Z,13.85
2019-05-29T05:57:31.474Z,13.81
2019-05-29T05:59:25.771Z,13.97
2019-05-29T06:00:26.189Z,13.78
2019-05-29T06:02:21.738Z,13.47
2019-05-29T06:03:22.172Z,13.56
2019-05-29T06:05:16.767Z,14.05
2019-05-29T06:06:17.157Z,14.25
2019-05-29T06:08:15.777Z,14.30
2019-05-29T06:09:16.206Z,14.07
2019-05-29T06:10:16.635Z,14.17
2019-05-29T06:11:17.085Z,14.32
2019-05-29T06:12:17.503Z,14.44
2019-05-29T06:13:17.968Z,14.28
2019-05-29T06:14:18.375Z,14.11
2019-05-29T06:15:18.811Z,14.18
2019-05-29T06:16:19.246Z,14.36
2019-05-29T06:17:22.074Z,14.12
2019-05-29T06:18:21.789Z,14.12
2019-05-29T06:19:20.548Z,13.72
2019-05-29T06:20:22.536Z,14.25
2019-05-29T06:21:21.415Z,14.36
2019-05-29T06:22:21.851Z,13.79
2019-05-29T06:23:22.283Z,13.93
2019-05-29T06:24:22.721Z,14.35
2019-05-29T06:25:23.156Z,14.79
2019-05-29T06:26:23.594Z,14.78
2019-05-29T06:27:24.024Z,14.88
2019-05-29T06:28:24.463Z,15.06
2019-05-29T06:29:24.949Z,15.03
2019-05-29T06:30:25.334Z,14.82
2019-05-29T06:31:27.343Z,15.18
2019-05-29T06:32:26.209Z,15.52
2019-05-29T06:33:26.645Z,16.39
2019-05-29T06:34:27.074Z,17.11
2019-05-29T06:35:27.554Z,17.92
2019-05-29T06:36:27.952Z,18.31
2019-05-29T06:37:28.395Z,17.33
2019-05-29T06:38:28.830Z,17.16
2019-05-29T06:39:29.320Z,16.83
2019-05-29T06:40:29.702Z,16.13
2019-05-29T06:41:30.152Z,15.88
2019-05-29T06:42:30.632Z,16.61
2019-05-29T06:43:31.028Z,16.74
2019-05-29T06:44:31.466Z,16.36
2019-05-29T06:45:31.927Z,16.38
2019-05-29T06:46:32.343Z,16.49
2019-05-29T06:47:34.139Z,16.68
2019-05-29T06:48:52.641Z,16.56
2019-05-29T06:49:33.926Z,17.06
2019-05-29T06:50:35.303Z,16.71
2019-05-29T06:51:35.163Z,15.97
2019-05-29T06:52:35.375Z,15.25
2019-05-29T06:53:35.756Z,15.27
2019-05-29T06:54:35.878Z,15.90
2019-05-29T06:55:37.796Z,16.84
2019-05-29T06:56:37.755Z,16.60
2019-05-29T06:57:38.138Z,16.50
2019-05-29T06:58:38.087Z,17.09
2019-05-29T06:59:38.244Z,17.74
2019-05-29T07:00:39.377Z,18.05
2019-05-29T07:01:39.396Z,18.50
2019-05-29T07:02:40.691Z,18.45
2019-05-29T07:03:39.850Z,18.73
2019-05-29T07:04:40.489Z,18.13
2019-05-29T07:05:44.719Z,17.83
2019-05-29T07:06:41.182Z,18.19
2019-05-29T07:07:42.434Z,17.63
2019-05-29T07:08:45.065Z,17.57
2019-05-29T07:09:43.061Z,17.72
2019-05-29T07:10:44.482Z,18.23
2019-05-29T07:11:43.577Z,17.92
2019-05-29T07:12:44.478Z,18.62
2019-05-29T07:13:47.496Z,17.59
2019-05-29T07:14:44.745Z,16.74
2019-05-29T07:15:45.840Z,16.66
2019-05-29T07:16:55.637Z,16.61
2019-05-29T07:17:46.699Z,16.21
2019-05-29T07:19:23.382Z,16.51
2019-05-29T07:19:57.802Z,17.26
2019-05-29T07:20:47.419Z,17.05
2019-05-29T07:21:47.870Z,17.27
2019-05-29T07:22:48.316Z,17.22
2019-05-29T07:23:49.078Z,17.92
2019-05-29T07:24:49.208Z,17.95
2019-05-29T07:25:49.647Z,18.00
2019-05-29T07:26:50.154Z,18.28
2019-05-29T07:27:50.543Z,18.31
2019-05-29T07:29:07.672Z,18.86
2019-05-29T07:29:51.451Z,17.92
2019-05-29T07:31:00.940Z,17.36
2019-05-29T07:31:52.334Z,17.49
2019-05-29T07:32:58.740Z,18.10
2019-05-29T07:33:53.225Z,17.41
2019-05-29T07:35:03.128Z,17.72
2019-05-29T07:35:54.113Z,17.54
2019-05-29T07:36:54.566Z,18.00
2019-05-29T07:37:55.007Z,18.70
2019-05-29T07:39:02.951Z,19.07
2019-05-29T07:39:55.903Z,18.89
2019-05-29T07:40:56.380Z,18.58
2019-05-29T07:41:56.805Z,18.81
2019-05-29T07:42:57.355Z,18.25
2019-05-29T07:43:57.696Z,17.83
2019-05-29T07:44:58.144Z,17.54
2019-05-29T07:45:58.598Z,17.83
2019-05-29T07:46:59.044Z,18.50
2019-05-29T07:47:59.573Z,18.13
2019-05-29T07:48:59.948Z,18.45
2019-05-29T07:50:00.394Z,18.31
2019-05-29T07:51:06.940Z,17.57
2019-05-29T07:52:01.283Z,17.57
2019-05-29T07:53:01.769Z,17.82
2019-05-29T07:54:02.183Z,17.49
2019-05-29T07:55:02.636Z,18.13
2019-05-29T07:56:03.089Z,18.29
2019-05-29T07:57:03.535Z,18.01
2019-05-29T07:58:03.978Z,18.28
2019-05-29T07:59:04.443Z,18.34
2019-05-29T08:00:04.883Z,18.34
2019-05-29T08:01:13.207Z,17.70
2019-05-29T08:02:05.786Z,17.59
2019-05-29T08:03:06.235Z,17.24
2019-05-29T08:04:06.693Z,18.63
2019-05-29T08:05:07.144Z,18.98
2019-05-29T08:06:07.596Z,19.07
2019-05-29T08:07:08.048Z,18.49
2019-05-29T08:08:08.507Z,18.35
2019-05-29T08:09:08.953Z,18.81
2019-05-29T08:10:09.401Z,19.51
2019-05-29T08:11:09.849Z,19.00
2019-05-29T08:12:10.307Z,17.98
2019-05-29T08:13:10.755Z,18.00
2019-05-29T08:14:11.203Z,17.72
2019-05-29T08:15:11.658Z,17.57
2019-05-29T08:16:12.105Z,16.76
2019-05-29T08:17:12.554Z,16.43
2019-05-29T08:18:13.004Z,16.33
2019-05-29T08:19:13.447Z,16.13
2019-05-29T08:20:13.900Z,16.49
2019-05-29T08:21:14.341Z,16.64
2019-05-29T08:22:14.790Z,17.56
2019-05-29T08:23:15.236Z,18.01
2019-05-29T08:24:15.692Z,18.11
2019-05-29T08:25:16.136Z,18.37
2019-05-29T08:26:16.581Z,17.33
2019-05-29T08:27:17.022Z,17.65
2019-05-29T08:28:17.461Z,18.05
2019-05-29T08:29:17.914Z,18.58
2019-05-29T08:30:18.375Z,17.15
2019-05-29T08:31:18.810Z,18.07
2019-05-29T08:32:19.270Z,18.00
2019-05-29T08:33:19.712Z,18.20
2019-05-29T08:34:20.160Z,18.80
2019-05-29T08:35:20.616Z,19.54
2019-05-29T08:36:21.107Z,21.15
2019-05-29T08:37:21.539Z,21.42
2019-05-29T08:38:21.971Z,20.07
2019-05-29T08:39:35.143Z,20.43
2019-05-29T08:40:22.883Z,21.09
2019-05-29T08:41:23.337Z,20.78
2019-05-29T08:42:24.043Z,20.02
2019-05-29T08:43:24.244Z,21.24
2019-05-29T08:44:24.765Z,19.89
2019-05-29T08:45:25.171Z,18.74
2019-05-29T08:46:25.611Z,19.95
2019-05-29T08:47:26.075Z,20.92
2019-05-29T08:48:26.574Z,22.68
2019-05-29T08:49:27.000Z,24.26
2019-05-29T08:50:27.454Z,24.91
2019-05-29T08:51:27.936Z,25.81
2019-05-29T08:52:28.371Z,22.51
2019-05-29T08:53:28.829Z,22.33
2019-05-29T08:54:29.296Z,22.85
2019-05-29T08:55:29.750Z,21.33
2019-05-29T08:56:30.234Z,21.20
2019-05-29T08:57:30.679Z,21.15
2019-05-29T08:58:31.133Z,20.50
2019-05-29T08:59:31.583Z,19.82
2019-05-29T09:00:32.046Z,19.09
2019-05-29T09:01:32.504Z,18.63
2019-05-29T09:02:32.960Z,18.90
2019-05-29T09:03:33.407Z,19.16
2019-05-29T09:04:33.861Z,20.44
2019-05-29T09:05:34.318Z,21.76
2019-05-29T09:06:34.771Z,20.81
2019-05-29T09:07:35.224Z,20.52
2019-05-29T09:08:35.682Z,21.73
2019-05-29T09:09:36.149Z,21.09
2019-05-29T09:10:36.607Z,21.58
2019-05-29T09:11:37.062Z,22.36
2019-05-29T09:12:37.525Z,22.29
2019-05-29T09:13:37.970Z,21.18
2019-05-29T09:14:38.431Z,21.27
2019-05-29T09:15:38.886Z,20.67
2019-05-29T09:16:39.416Z,20.48
2019-05-29T09:17:39.799Z,19.59
2019-05-29T09:18:40.254Z,19.99
2019-05-29T09:19:40.713Z,18.63
2019-05-29T09:21:00.698Z,18.20
2019-05-29T09:21:41.621Z,18.44
2019-05-29T09:22:42.079Z,18.38
2019-05-29T09:23:42.527Z,19.88
2019-05-29T09:24:42.987Z,20.58
2019-05-29T09:25:43.442Z,21.22
2019-05-29T09:26:46.401Z,22.59
2019-05-29T09:27:44.345Z,23.43
2019-05-29T09:28:44.812Z,24.74
2019-05-29T09:29:45.266Z,25.62
2019-05-29T09:30:45.723Z,27.07
2019-05-29T09:31:46.179Z,26.96
2019-05-29T09:32:51.638Z,27.67
2019-05-29T09:33:47.099Z,27.70
2019-05-29T09:34:47.812Z,26.51
2019-05-29T09:35:48.029Z,21.09
2019-05-29T09:38:23.033Z,17.51
2019-05-29T09:39:22.793Z,18.05
2019-05-29T09:41:17.424Z,21.29
2019-05-29T09:42:18.521Z,22.26
2019-05-29T09:44:28.235Z,22.18
2019-05-29T09:45:12.237Z,22.99
2019-05-29T09:47:07.848Z,24.96
2019-05-29T09:48:08.307Z,26.47
2019-05-29T09:50:03.931Z,25.93
2019-05-29T09:51:20.262Z,26.53
2019-05-29T09:53:00.480Z,24.84
2019-05-29T09:54:01.068Z,25.72
2019-05-29T09:55:55.629Z,22.62
2019-05-29T09:56:56.155Z,21.85
2019-05-29T09:58:49.160Z,21.66
2019-05-29T09:59:49.634Z,22.20
2019-05-29T10:01:44.235Z,19.08
2019-05-29T10:02:44.688Z,19.07
2019-05-29T10:04:39.299Z,20.51
2019-05-29T10:05:39.746Z,20.43
2019-05-29T10:07:34.370Z,21.75
2019-05-29T10:08:34.810Z,22.98
2019-05-29T10:10:29.416Z,22.50
2019-05-29T10:11:29.878Z,20.88
2019-05-29T10:13:24.470Z,21.39
2019-05-29T10:14:24.928Z,22.65
2019-05-29T10:16:20.541Z,24.61
2019-05-29T10:17:21.009Z,23.43
2019-05-29T10:19:15.606Z,22.76
2019-05-29T10:20:16.075Z,21.36
2019-05-29T10:21:16.553Z,22.62
2019-05-29T10:22:17.034Z,22.30
2019-05-29T10:23:20.039Z,23.41
2019-05-29T10:24:17.907Z,24.11
2019-05-29T10:25:18.369Z,23.84
2019-05-29T10:26:18.835Z,22.60
2019-05-29T10:27:19.406Z,22.53
2019-05-29T10:28:19.752Z,21.43
2019-05-29T10:29:20.206Z,20.41
2019-05-29T10:30:20.658Z,20.75
2019-05-29T10:31:21.124Z,20.21
2019-05-29T10:32:21.574Z,20.09
2019-05-29T10:33:22.029Z,20.63
2019-05-29T10:34:22.548Z,22.99
2019-05-29T10:35:22.944Z,23.80
2019-05-29T10:36:23.606Z,23.34
2019-05-29T10:37:23.869Z,21.50
2019-05-29T10:38:24.317Z,21.33
2019-05-29T10:39:24.776Z,22.59
2019-05-29T10:40:25.238Z,22.68
2019-05-29T10:41:25.701Z,23.48
2019-05-29T10:42:26.165Z,25.17
2019-05-29T10:44:20.785Z,24.61
2019-05-29T10:45:21.240Z,24.53
2019-05-29T10:47:15.862Z,24.65
2019-05-29T10:48:16.327Z,24.88
2019-05-29T10:50:11.158Z,23.48
2019-05-29T10:51:11.416Z,26.02
2019-05-29T10:53:06.068Z,27.82
2019-05-29T10:54:06.518Z,28.08
2019-05-29T10:56:01.145Z,26.16
2019-05-29T10:57:01.611Z,24.55
2019-05-29T10:58:59.876Z,23.36
2019-05-29T10:59:56.735Z,22.65
2019-05-29T11:01:51.848Z,22.41
2019-05-29T11:02:53.538Z,23.40
2019-05-29T11:04:50.408Z,21.73
2019-05-29T11:05:47.481Z,21.24
2019-05-29T11:07:41.477Z,21.96
2019-05-29T11:08:41.942Z,23.25
2019-05-29T11:10:36.543Z,22.08
2019-05-29T11:11:36.999Z,23.20
2019-05-29T11:13:31.598Z,22.96
2019-05-29T11:14:32.058Z,24.10
2019-05-29T11:16:26.709Z,24.60
2019-05-29T11:17:27.147Z,22.65
2019-05-29T11:19:25.838Z,22.87
2019-05-29T11:20:22.224Z,22.22
2019-05-29T11:22:26.410Z,26.03
2019-05-29T11:23:17.315Z,27.07
2019-05-29T11:25:22.538Z,25.78
2019-05-29T11:26:12.770Z,26.10
2019-05-29T11:28:07.206Z,27.73
2019-05-29T11:29:07.538Z,28.22
2019-05-29T11:31:06.198Z,26.77
2019-05-29T11:32:02.643Z,27.26
2019-05-29T11:33:57.341Z,25.13
2019-05-29T11:34:57.736Z,23.27
2019-05-29T11:36:52.494Z,21.43
2019-05-29T11:37:52.951Z,19.47
2019-05-29T11:39:47.439Z,19.73
2019-05-29T11:40:48.025Z,19.58
2019-05-29T11:42:42.586Z,19.52
2019-05-29T11:43:42.979Z,19.44
2019-05-29T11:45:37.805Z,19.49
2019-05-29T11:46:38.085Z,18.52
2019-05-29T11:48:32.689Z,19.09
2019-05-29T11:49:33.097Z,19.51
2019-05-29T11:51:28.049Z,19.27
2019-05-29T11:52:41.684Z,18.98
2019-05-29T11:54:23.086Z,18.88
2019-05-29T11:55:23.538Z,19.07
2019-05-29T11:57:18.385Z,19.58
2019-05-29T11:58:30.549Z,19.55
2019-05-29T12:00:20.239Z,19.48
2019-05-29T12:01:14.668Z,19.54
2019-05-29T12:03:11.205Z,18.99
2019-05-29T12:04:24.323Z,18.13
2019-05-29T12:06:04.421Z,17.97
2019-05-29T12:07:04.736Z,18.10
2019-05-29T12:08:05.175Z,18.47
2019-05-29T12:09:05.626Z,18.55
2019-05-29T12:10:06.419Z,17.82
2019-05-29T12:11:07.301Z,17.87
2019-05-29T12:12:06.951Z,18.05
2019-05-29T12:13:07.387Z,18.49
2019-05-29T12:14:07.825Z,18.49
2019-05-29T12:15:14.362Z,18.20
2019-05-29T12:16:08.709Z,18.35
2019-05-29T12:17:09.152Z,18.47
2019-05-29T12:18:23.084Z,18.49
2019-05-29T12:19:10.040Z,18.62
2019-05-29T12:20:26.333Z,19.09
2019-05-29T12:21:10.915Z,19.29
2019-05-29T12:22:11.361Z,19.49
2019-05-29T12:23:25.065Z,18.73
2019-05-29T12:24:12.284Z,18.78
2019-05-29T12:25:12.686Z,18.93
2019-05-29T12:26:22.382Z,18.74
2019-05-29T12:27:13.571Z,18.59
2019-05-29T12:28:14.009Z,18.88
2019-05-29T12:29:14.457Z,18.93
2019-05-29T12:30:14.896Z,18.93
2019-05-29T12:31:15.334Z,19.07
2019-05-29T12:32:15.825Z,19.24
2019-05-29T12:33:16.213Z,19.30
2019-05-29T12:34:19.372Z,19.31
2019-05-29T12:35:17.096Z,18.78
2019-05-29T12:36:17.542Z,18.90
2019-05-29T12:37:18.011Z,19.16
2019-05-29T12:38:18.425Z,18.86
2019-05-29T12:39:18.857Z,19.00
2019-05-29T12:40:19.311Z,18.80
2019-05-29T12:41:19.752Z,18.56
2019-05-29T12:42:20.254Z,18.66
2019-05-29T12:43:27.126Z,18.77
2019-05-29T12:44:21.074Z,18.41
2019-05-29T12:45:21.506Z,18.53
2019-05-29T12:46:21.957Z,18.58
2019-05-29T12:47:22.389Z,18.56
2019-05-29T12:48:22.831Z,18.74
2019-05-29T12:49:23.276Z,18.34
2019-05-29T12:50:23.709Z,17.86
2019-05-29T12:51:24.149Z,17.65
2019-05-29T12:52:24.609Z,17.59
2019-05-29T12:53:30.315Z,17.68
2019-05-29T12:54:25.471Z,17.92
2019-05-29T12:55:25.915Z,18.22
2019-05-29T12:56:26.352Z,18.26
2019-05-29T12:57:26.795Z,18.04
2019-05-29T12:58:27.231Z,18.03
2019-05-29T12:59:27.669Z,18.08
2019-05-29T13:00:28.120Z,18.29
2019-05-29T13:01:28.554Z,18.33
2019-05-29T13:02:28.996Z,18.49
2019-05-29T13:03:29.444Z,18.45
2019-05-29T13:04:29.885Z,18.52
2019-05-29T13:05:30.311Z,18.62
2019-05-29T13:06:30.750Z,18.43
2019-05-29T13:07:31.194Z,18.34
2019-05-29T13:08:31.627Z,18.50
2019-05-29T13:09:32.105Z,18.49
2019-05-29T13:10:32.514Z,18.58
2019-05-29T13:11:32.945Z,18.58
2019-05-29T13:12:33.430Z,18.40
2019-05-29T13:13:33.824Z,18.03
2019-05-29T13:14:34.265Z,18.20
2019-05-29T13:15:34.702Z,18.23
2019-05-29T13:16:35.141Z,18.38
2019-05-29T13:17:35.595Z,18.41
2019-05-29T13:18:36.020Z,18.86
2019-05-29T13:19:36.479Z,19.11
2019-05-29T13:20:36.905Z,19.09
2019-05-29T13:21:37.338Z,18.93
2019-05-29T13:22:37.792Z,19.15
2019-05-29T13:23:45.192Z,18.92
2019-05-29T13:24:38.656Z,19.29
2019-05-29T13:25:39.104Z,19.29
2019-05-29T13:26:39.534Z,19.54
2019-05-29T13:27:39.975Z,18.89
2019-05-29T13:28:40.417Z,18.52
2019-05-29T13:29:40.856Z,18.10
2019-05-29T13:30:41.354Z,18.47
2019-05-29T13:31:41.732Z,18.68
2019-05-29T13:32:42.733Z,18.71
2019-05-29T13:33:42.607Z,18.58
2019-05-29T13:34:43.055Z,18.71
2019-05-29T13:35:43.494Z,18.78
2019-05-29T13:36:43.960Z,18.90
2019-05-29T13:37:44.369Z,19.04
2019-05-29T13:38:44.813Z,19.26
2019-05-29T13:39:45.259Z,19.07
2019-05-29T13:40:45.688Z,18.80
2019-05-29T13:41:46.137Z,19.07
2019-05-29T13:42:46.565Z,19.14
2019-05-29T13:43:47.007Z,19.08
2019-05-29T13:44:47.487Z,19.11
2019-05-29T13:45:47.899Z,19.39
2019-05-29T13:46:48.363Z,19.44
2019-05-29T13:47:48.777Z,19.24
2019-05-29T13:48:49.202Z,19.37
2019-05-29T13:49:49.642Z,19.49
2019-05-29T13:50:50.085Z,19.58
2019-05-29T13:51:50.555Z,19.62
2019-05-29T13:52:50.995Z,19.21
2019-05-29T13:54:02.525Z,19.08
2019-05-29T13:54:51.847Z,19.27
2019-05-29T13:55:52.278Z,19.40
2019-05-29T13:56:52.760Z,19.52
2019-05-29T13:57:53.161Z,19.82
2019-05-29T13:58:53.633Z,20.02
2019-05-29T13:59:54.043Z,19.82
2019-05-29T14:00:54.498Z,19.51
2019-05-29T14:01:54.927Z,19.58
2019-05-29T14:02:55.369Z,19.34
2019-05-29T14:03:55.801Z,19.16
2019-05-29T14:04:56.238Z,18.88
2019-05-29T14:05:56.680Z,18.58
2019-05-29T14:06:58.490Z,18.70
2019-05-29T14:07:58.524Z,18.71
2019-05-29T14:08:58.981Z,18.60
2019-05-29T14:09:58.892Z,18.90
2019-05-29T14:10:59.202Z,18.96
2019-05-29T14:11:59.317Z,19.27
2019-05-29T14:13:00.965Z,19.40
2019-05-29T14:14:01.275Z,19.34
2019-05-29T14:15:02.090Z,19.54
2019-05-29T14:16:02.287Z,19.36
2019-05-29T14:17:02.589Z,19.31
2019-05-29T14:18:02.868Z,19.44
2019-05-29T14:19:02.819Z,19.48
2019-05-29T14:20:02.834Z,19.51
2019-05-29T14:21:03.323Z,19.85
2019-05-29T14:22:04.989Z,19.40
2019-05-29T14:23:05.323Z,19.34
2019-05-29T14:24:23.472Z,19.21
2019-05-29T14:25:05.321Z,19.44
2019-05-29T14:26:06.470Z,19.73
2019-05-29T14:27:05.914Z,19.45
2019-05-29T14:28:06.769Z,19.70
2019-05-29T14:29:07.586Z,20.07
2019-05-29T14:30:08.417Z,20.25
2019-05-29T14:31:08.400Z,20.00
2019-05-29T14:32:09.195Z,19.85
2019-05-29T14:33:12.596Z,19.85
2019-05-29T14:34:09.510Z,20.04
2019-05-29T14:35:10.969Z,20.13
2019-05-29T14:36:09.883Z,19.84
2019-05-29T14:37:11.664Z,19.84
2019-05-29T14:38:14.368Z,20.22
2019-05-29T14:39:12.036Z,20.48
2019-05-29T14:40:12.062Z,20.51
2019-05-29T14:41:12.084Z,20.18
2019-05-29T14:42:12.539Z,20.28
2019-05-29T14:43:15.577Z,20.07
2019-05-29T14:44:16.998Z,19.82
2019-05-29T14:45:13.854Z,18.95
2019-05-29T14:46:14.298Z,19.18
2019-05-29T14:47:14.733Z,19.44
2019-05-29T14:48:15.171Z,19.55
2019-05-29T14:49:15.614Z,19.55
2019-05-29T14:50:16.057Z,19.73
2019-05-29T14:51:16.495Z,19.71
2019-05-29T14:52:16.937Z,19.63
2019-05-29T14:53:17.382Z,19.55
2019-05-29T14:54:17.819Z,19.45
2019-05-29T14:55:18.566Z,19.48
2019-05-29T14:56:18.710Z,19.34
2019-05-29T14:57:24.651Z,19.62
2019-05-29T14:58:19.580Z,19.62